createdAt,value
2024-05-09T00:00:56.109Z,3.03
2024-05-09T00:01:58.480Z,3.05
2024-05-09T00:03:02.062Z,3.20
2024-05-09T00:04:04.999Z,2.92
2024-05-09T00:05:11.656Z,2.65
2024-05-09T00:06:14.359Z,2.90
2024-05-09T00:07:17.014Z,2.80
2024-05-09T00:08:19.449Z,2.60
2024-05-09T00:09:22.047Z,3.20
2024-05-09T00:10:35.397Z,2.80
2024-05-09T00:11:40.938Z,3.05
2024-05-09T00:12:43.562Z,3.17
2024-05-09T00:13:46.108Z,2.80
2024-05-09T00:14:48.557Z,3.10
2024-05-09T00:15:50.950Z,3.10
2024-05-09T00:16:53.466Z,3.10
2024-05-09T00:17:56.309Z,3.25
2024-05-09T00:18:58.924Z,2.80
2024-05-09T00:20:02.083Z,3.15
2024-05-09T00:21:08.827Z,3.00
2024-05-09T00:22:12.150Z,3.15
2024-05-09T00:23:14.734Z,2.83
2024-05-09T00:24:17.395Z,2.90
2024-05-09T00:25:19.790Z,3.03
2024-05-09T00:26:22.904Z,3.17
2024-05-09T00:27:25.631Z,3.20
2024-05-09T00:28:28.445Z,2.83
2024-05-09T00:29:31.004Z,3.22
2024-05-09T00:30:36.145Z,2.88
2024-05-09T00:31:39.778Z,3.15
2024-05-09T00:32:42.722Z,2.88
2024-05-09T00:33:45.347Z,2.97
2024-05-09T00:34:48.144Z,2.80
2024-05-09T00:35:51.041Z,2.70
2024-05-09T00:36:57.055Z,3.00
2024-05-09T00:37:59.877Z,2.90
2024-05-09T00:39:03.286Z,2.70
2024-05-09T00:40:09.567Z,2.90
2024-05-09T00:41:16.424Z,2.72
2024-05-09T00:42:21.002Z,2.63
2024-05-09T00:43:23.306Z,2.78
2024-05-09T00:44:25.902Z,2.72
2024-05-09T00:45:28.284Z,2.35
2024-05-09T00:46:31.065Z,2.78
2024-05-09T00:47:35.966Z,3.00
2024-05-09T00:48:38.568Z,3.00
2024-05-09T00:49:42.683Z,2.90
2024-05-09T00:50:46.537Z,2.72
2024-05-09T00:51:49.628Z,2.58
2024-05-09T00:52:53.970Z,2.67
2024-05-09T00:53:58.393Z,2.60
2024-05-09T00:55:02.238Z,2.47
2024-05-09T00:56:08.238Z,2.45
2024-05-09T00:57:13.131Z,2.83
2024-05-09T00:58:19.360Z,3.20
2024-05-09T00:59:22.464Z,3.10
2024-05-09T01:00:35.675Z,3.33
2024-05-09T01:01:43.871Z,2.90
2024-05-09T01:02:46.942Z,2.90
2024-05-09T01:03:51.663Z,3.55
2024-05-09T01:04:54.584Z,3.17
2024-05-09T01:05:58.107Z,3.45
2024-05-09T01:07:01.104Z,2.90
2024-05-09T01:08:03.584Z,3.17
2024-05-09T01:09:06.099Z,3.22
2024-05-09T01:10:14.316Z,3.72
2024-05-09T01:11:23.553Z,3.45
2024-05-09T01:12:26.417Z,3.50
2024-05-09T01:13:32.639Z,3.97
2024-05-09T01:14:39.676Z,3.88
2024-05-09T01:15:42.518Z,3.88
2024-05-09T01:16:45.145Z,3.55
2024-05-09T01:17:48.633Z,3.88
2024-05-09T01:18:52.932Z,3.38
2024-05-09T01:19:55.985Z,3.00
2024-05-09T01:21:01.787Z,3.05
2024-05-09T01:22:04.615Z,3.17
2024-05-09T01:23:08.440Z,2.95
2024-05-09T01:24:13.711Z,2.65
2024-05-09T01:25:16.893Z,2.60
2024-05-09T01:26:19.647Z,2.58
2024-05-09T01:27:23.125Z,2.63
2024-05-09T01:28:26.176Z,2.80
2024-05-09T01:29:28.839Z,3.35
2024-05-09T01:30:35.246Z,3.50
2024-05-09T01:31:39.782Z,3.53
2024-05-09T01:32:43.539Z,3.78
2024-05-09T01:33:47.751Z,3.50
2024-05-09T01:34:51.146Z,4.03
2024-05-09T01:35:53.659Z,3.70
2024-05-09T01:36:56.151Z,3.72
2024-05-09T01:37:58.798Z,3.67
2024-05-09T01:39:02.275Z,3.60
2024-05-09T01:40:09.566Z,4.07
2024-05-09T01:41:17.141Z,3.47
2024-05-09T01:42:19.590Z,3.53
2024-05-09T01:43:22.573Z,3.70
2024-05-09T01:44:25.055Z,4.05
2024-05-09T01:45:28.263Z,3.75
2024-05-09T01:46:31.408Z,3.60
2024-05-09T01:47:33.956Z,3.58
2024-05-09T01:48:36.886Z,4.00
2024-05-09T01:49:40.896Z,3.50
2024-05-09T01:50:43.729Z,3.78
2024-05-09T01:51:46.346Z,3.55
2024-05-09T01:52:51.495Z,3.50
2024-05-09T01:53:56.561Z,3.80
2024-05-09T01:55:00.775Z,3.75
2024-05-09T01:56:06.430Z,3.50
2024-05-09T01:57:09.038Z,3.28
2024-05-09T01:58:12.385Z,3.50
2024-05-09T01:59:14.831Z,3.42
2024-05-09T02:00:26.258Z,3.60
2024-05-09T02:01:56.400Z,3.70
2024-05-09T02:03:00.760Z,3.80
2024-05-09T02:04:03.416Z,3.92
2024-05-09T02:05:07.581Z,4.10
2024-05-09T02:06:10.449Z,3.63
2024-05-09T02:07:13.399Z,3.25
2024-05-09T02:08:18.381Z,3.75
2024-05-09T02:09:21.894Z,3.40
2024-05-09T02:10:31.722Z,3.58
2024-05-09T02:11:46.063Z,3.25
2024-05-09T02:12:48.508Z,3.28
2024-05-09T02:13:51.133Z,3.88
2024-05-09T02:14:53.567Z,4.30
2024-05-09T02:15:58.627Z,4.60
2024-05-09T02:17:01.081Z,4.10
2024-05-09T02:18:04.948Z,3.65
2024-05-09T02:19:07.823Z,3.80
2024-05-09T02:20:18.762Z,3.60
2024-05-09T02:21:35.730Z,3.85
2024-05-09T02:22:38.121Z,3.33
2024-05-09T02:23:43.601Z,3.60
2024-05-09T02:24:46.139Z,3.60
2024-05-09T02:25:49.608Z,3.40
2024-05-09T02:26:52.321Z,3.63
2024-05-09T02:27:54.727Z,3.70
2024-05-09T02:28:57.430Z,3.85
2024-05-09T02:29:59.955Z,3.60
2024-05-09T02:31:02.580Z,3.30
2024-05-09T02:32:05.807Z,3.47
2024-05-09T02:33:13.810Z,3.90
2024-05-09T02:34:17.292Z,3.20
2024-05-09T02:35:19.723Z,3.38
2024-05-09T02:36:22.704Z,3.22
2024-05-09T02:37:25.193Z,3.53
2024-05-09T02:38:28.071Z,3.50
2024-05-09T02:39:30.748Z,3.67
2024-05-09T02:40:37.240Z,3.60
2024-05-09T02:41:42.116Z,3.60
2024-05-09T02:42:44.528Z,3.42
2024-05-09T02:43:47.110Z,3.53
2024-05-09T02:44:49.629Z,3.20
2024-05-09T02:45:52.889Z,3.45
2024-05-09T02:46:55.594Z,3.67
2024-05-09T02:47:58.527Z,4.07
2024-05-09T02:49:01.255Z,3.70
2024-05-09T02:50:08.292Z,3.50
2024-05-09T02:51:11.721Z,3.50
2024-05-09T02:52:20.458Z,3.42
2024-05-09T02:53:24.519Z,3.30
2024-05-09T02:54:27.102Z,3.50
2024-05-09T02:55:29.531Z,3.40
2024-05-09T02:56:32.472Z,3.78
2024-05-09T02:57:38.304Z,4.32
2024-05-09T02:58:41.005Z,3.78
2024-05-09T02:59:44.196Z,3.70
2024-05-09T03:00:47.078Z,3.92
2024-05-09T03:01:49.564Z,3.88
2024-05-09T03:02:52.799Z,3.17
2024-05-09T03:03:55.516Z,3.58
2024-05-09T03:04:58.369Z,3.92
2024-05-09T03:06:03.130Z,3.90
2024-05-09T03:07:05.859Z,3.45
2024-05-09T03:08:08.313Z,3.22
2024-05-09T03:09:11.246Z,3.90
2024-05-09T03:10:21.928Z,3.63
2024-05-09T03:11:28.410Z,3.78
2024-05-09T03:12:31.021Z,3.58
2024-05-09T03:13:33.332Z,3.40
2024-05-09T03:14:35.907Z,3.47
2024-05-09T03:15:38.484Z,4.15
2024-05-09T03:16:40.958Z,3.90
2024-05-09T03:17:43.636Z,4.10
2024-05-09T03:18:47.157Z,3.75
2024-05-09T03:19:49.763Z,4.30
2024-05-09T03:20:52.825Z,3.67
2024-05-09T03:21:55.452Z,3.85
2024-05-09T03:22:57.965Z,3.58
2024-05-09T03:24:01.202Z,3.50
2024-05-09T03:25:03.583Z,3.10
2024-05-09T03:26:17.560Z,3.05
2024-05-09T03:27:24.846Z,3.40
2024-05-09T03:28:27.512Z,3.63
2024-05-09T03:29:29.998Z,4.20
2024-05-09T03:30:40.173Z,3.72
2024-05-09T03:31:45.044Z,3.70
2024-05-09T03:32:48.246Z,3.65
2024-05-09T03:33:51.180Z,4.00
2024-05-09T03:34:53.646Z,3.60
2024-05-09T03:35:57.084Z,3.85
2024-05-09T03:36:59.613Z,3.60
2024-05-09T03:38:02.255Z,3.95
2024-05-09T03:39:04.722Z,4.20
2024-05-09T03:40:11.813Z,3.88
2024-05-09T03:41:20.558Z,3.90
2024-05-09T03:42:28.211Z,3.92
2024-05-09T03:43:30.883Z,4.05
2024-05-09T03:44:33.377Z,4.13
2024-05-09T03:45:36.030Z,3.95
2024-05-09T03:46:42.440Z,3.95
2024-05-09T03:47:44.952Z,4.20
2024-05-09T03:48:48.073Z,4.28
2024-05-09T03:49:50.988Z,3.63
2024-05-09T03:50:53.698Z,3.80
2024-05-09T03:51:58.121Z,4.53
2024-05-09T03:53:02.081Z,4.00
2024-05-09T03:54:04.659Z,4.20
2024-05-09T03:55:07.746Z,3.60
2024-05-09T03:56:10.169Z,3.75
2024-05-09T03:57:13.282Z,3.58
2024-05-09T03:58:15.975Z,3.60
2024-05-09T03:59:18.774Z,3.72
2024-05-09T04:00:30.004Z,3.88
2024-05-09T04:01:38.025Z,3.22
2024-05-09T04:02:43.755Z,3.60
2024-05-09T04:03:46.933Z,3.28
2024-05-09T04:04:49.694Z,3.60
2024-05-09T04:05:52.747Z,3.78
2024-05-09T04:06:55.957Z,3.85
2024-05-09T04:07:58.412Z,3.90
2024-05-09T04:09:01.306Z,3.83
2024-05-09T04:10:06.799Z,3.72
2024-05-09T04:11:12.189Z,3.85
2024-05-09T04:12:14.724Z,3.67
2024-05-09T04:13:20.770Z,4.00
2024-05-09T04:14:23.647Z,5.75
2024-05-09T04:15:27.512Z,4.10
2024-05-09T04:16:29.910Z,4.20
2024-05-09T04:17:32.892Z,3.83
2024-05-09T04:18:36.081Z,4.15
2024-05-09T04:19:38.573Z,3.85
2024-05-09T04:20:41.633Z,4.30
2024-05-09T04:21:44.695Z,4.20
2024-05-09T04:22:48.071Z,4.40
2024-05-09T04:23:50.675Z,3.92
2024-05-09T04:24:53.233Z,4.50
2024-05-09T04:25:57.996Z,4.53
2024-05-09T04:27:01.382Z,4.60
2024-05-09T04:28:04.104Z,4.80
2024-05-09T04:29:07.077Z,5.30
2024-05-09T04:30:18.559Z,4.70
2024-05-09T04:31:24.408Z,4.40
2024-05-09T04:32:27.452Z,4.40
2024-05-09T04:33:30.915Z,4.43
2024-05-09T04:34:36.020Z,4.47
2024-05-09T04:35:38.917Z,4.40
2024-05-09T04:36:44.343Z,4.60
2024-05-09T04:37:47.542Z,4.57
2024-05-09T04:38:51.477Z,4.20
2024-05-09T04:39:54.693Z,5.35
2024-05-09T04:40:57.439Z,5.72
2024-05-09T04:41:59.975Z,4.93
2024-05-09T04:43:04.449Z,4.97
2024-05-09T04:44:09.549Z,4.40
2024-05-09T04:45:12.389Z,4.13
2024-05-09T04:46:15.835Z,4.45
2024-05-09T04:47:18.751Z,4.80
2024-05-09T04:48:23.836Z,4.55
2024-05-09T04:49:28.300Z,4.65
2024-05-09T04:50:36.857Z,5.40
2024-05-09T04:51:42.732Z,5.00
2024-05-09T04:52:45.101Z,5.13
2024-05-09T04:53:48.447Z,5.18
2024-05-09T04:54:54.049Z,4.90
2024-05-09T04:56:00.995Z,5.13
2024-05-09T04:57:03.376Z,5.00
2024-05-09T04:58:09.463Z,4.93
2024-05-09T04:59:12.294Z,4.90
2024-05-09T05:00:21.915Z,5.05
2024-05-09T05:01:32.059Z,5.03
2024-05-09T05:02:34.546Z,4.55
2024-05-09T05:03:37.616Z,5.22
2024-05-09T05:04:40.212Z,4.93
2024-05-09T05:05:44.794Z,4.93
2024-05-09T05:06:48.160Z,5.10
2024-05-09T05:07:50.847Z,5.50
2024-05-09T05:08:53.250Z,5.60
2024-05-09T05:09:56.024Z,5.63
2024-05-09T05:10:58.458Z,5.43
2024-05-09T05:12:02.871Z,5.63
2024-05-09T05:13:23.279Z,5.45
2024-05-09T05:14:27.102Z,5.95
2024-05-09T05:15:29.811Z,6.00
2024-05-09T05:16:32.456Z,6.35
2024-05-09T05:17:35.130Z,6.18
2024-05-09T05:18:40.026Z,6.00
2024-05-09T05:19:43.363Z,6.20
2024-05-09T05:20:46.142Z,5.60
2024-05-09T05:21:48.569Z,6.07
2024-05-09T05:22:51.371Z,6.05
2024-05-09T05:23:53.699Z,5.82
2024-05-09T05:24:56.104Z,5.40
2024-05-09T05:25:59.131Z,5.70
2024-05-09T05:27:02.221Z,5.65
2024-05-09T05:28:04.878Z,6.00
2024-05-09T05:29:07.960Z,5.93
2024-05-09T05:30:17.574Z,5.90
2024-05-09T05:31:23.814Z,6.72
2024-05-09T05:32:29.661Z,6.30
2024-05-09T05:33:36.699Z,5.80
2024-05-09T05:34:39.408Z,6.18
2024-05-09T05:35:42.856Z,5.60
2024-05-09T05:36:46.131Z,6.10
2024-05-09T05:37:48.596Z,6.03
2024-05-09T05:38:52.246Z,6.13
2024-05-09T05:39:54.853Z,5.88
2024-05-09T05:40:57.799Z,6.25
2024-05-09T05:42:00.913Z,5.70
2024-05-09T05:43:11.020Z,5.80
2024-05-09T05:44:16.027Z,6.13
2024-05-09T05:45:18.503Z,5.60
2024-05-09T05:46:21.350Z,5.50
2024-05-09T05:47:26.166Z,5.78
2024-05-09T05:48:29.783Z,6.07
2024-05-09T05:49:33.634Z,5.72
2024-05-09T05:50:38.419Z,6.00
2024-05-09T05:51:42.305Z,5.80
2024-05-09T05:52:44.876Z,6.35
2024-05-09T05:53:47.749Z,6.00
2024-05-09T05:54:52.065Z,5.60
2024-05-09T05:55:54.827Z,5.80
2024-05-09T05:57:00.234Z,6.22
2024-05-09T05:58:04.010Z,5.25
2024-05-09T05:59:07.234Z,5.57
2024-05-09T06:00:17.969Z,5.43
2024-05-09T06:01:23.966Z,5.63
2024-05-09T06:02:26.928Z,5.70
2024-05-09T06:03:29.867Z,6.00
2024-05-09T06:04:32.733Z,5.90
2024-05-09T06:05:37.419Z,5.70
2024-05-09T06:06:39.997Z,6.43
2024-05-09T06:07:42.822Z,5.68
2024-05-09T06:08:46.069Z,5.28
2024-05-09T06:09:50.383Z,5.50
2024-05-09T06:10:53.318Z,5.97
2024-05-09T06:11:55.976Z,5.57
2024-05-09T06:12:58.381Z,5.10
2024-05-09T06:14:02.113Z,5.38
2024-05-09T06:15:05.088Z,5.78
2024-05-09T06:16:07.949Z,5.40
2024-05-09T06:17:11.066Z,5.82
2024-05-09T06:18:14.668Z,5.78
2024-05-09T06:19:19.235Z,5.70
2024-05-09T06:20:31.530Z,6.20
2024-05-09T06:21:38.258Z,6.03
2024-05-09T06:22:40.740Z,5.13
2024-05-09T06:23:47.506Z,5.63
2024-05-09T06:24:49.830Z,6.35
2024-05-09T06:25:52.517Z,6.50
2024-05-09T06:26:58.198Z,6.20
2024-05-09T06:28:02.074Z,5.80
2024-05-09T06:29:05.021Z,6.22
2024-05-09T06:30:14.397Z,6.13
2024-05-09T06:31:25.234Z,6.57
2024-05-09T06:32:28.269Z,5.97
2024-05-09T06:33:31.475Z,5.95
2024-05-09T06:34:34.435Z,6.95
2024-05-09T06:35:38.448Z,6.38
2024-05-09T06:36:42.620Z,6.40
2024-05-09T06:37:45.277Z,6.38
2024-05-09T06:38:51.113Z,6.35
2024-05-09T06:39:53.469Z,6.78
2024-05-09T06:40:56.176Z,6.45
2024-05-09T06:41:58.563Z,6.50
2024-05-09T06:43:01.341Z,6.28
2024-05-09T06:44:03.984Z,6.65
2024-05-09T06:45:07.179Z,6.47
2024-05-09T06:46:09.620Z,6.70
2024-05-09T06:47:12.584Z,6.32
2024-05-09T06:48:15.868Z,6.40
2024-05-09T06:49:18.681Z,6.78
2024-05-09T06:50:28.010Z,6.93
2024-05-09T06:51:37.661Z,6.65
2024-05-09T06:52:43.123Z,6.13
2024-05-09T06:53:46.234Z,6.18
2024-05-09T06:54:48.915Z,6.35
2024-05-09T06:55:51.964Z,11.82
2024-05-09T06:56:54.606Z,8.05
2024-05-09T06:57:57.235Z,6.88
2024-05-09T06:58:59.642Z,6.22
2024-05-09T07:00:03.796Z,6.10
2024-05-09T07:01:07.695Z,6.10
2024-05-09T07:02:10.215Z,5.72
2024-05-09T07:03:17.125Z,6.18
2024-05-09T07:04:21.213Z,5.70
2024-05-09T07:05:24.154Z,5.95
2024-05-09T07:06:27.540Z,5.60
2024-05-09T07:07:34.830Z,5.22
2024-05-09T07:08:37.865Z,5.50
2024-05-09T07:09:40.921Z,5.57
2024-05-09T07:10:43.603Z,5.03
2024-05-09T07:11:47.681Z,5.03
2024-05-09T07:12:51.601Z,5.00
2024-05-09T07:13:54.587Z,5.40
2024-05-09T07:14:57.373Z,4.72
2024-05-09T07:15:59.726Z,4.95
2024-05-09T07:17:02.936Z,5.10
2024-05-09T07:18:23.819Z,5.22
2024-05-09T07:19:29.867Z,4.72
2024-05-09T07:20:34.985Z,5.20
2024-05-09T07:21:38.453Z,4.90
2024-05-09T07:22:40.962Z,4.65
2024-05-09T07:23:46.916Z,4.78
2024-05-09T07:24:55.023Z,4.78
2024-05-09T07:26:00.368Z,4.60
2024-05-09T07:27:04.546Z,4.80
2024-05-09T07:28:14.883Z,5.57
2024-05-09T07:29:17.699Z,4.38
2024-05-09T07:30:27.918Z,5.00
2024-05-09T07:31:35.796Z,4.40
2024-05-09T07:32:38.428Z,4.28
2024-05-09T07:33:41.405Z,4.30
2024-05-09T07:34:43.930Z,4.07
2024-05-09T07:35:46.990Z,4.75
2024-05-09T07:36:49.742Z,4.13
2024-05-09T07:37:52.178Z,4.30
2024-05-09T07:38:55.899Z,3.83
2024-05-09T07:39:58.319Z,4.72
2024-05-09T07:41:04.084Z,4.50
2024-05-09T07:42:07.873Z,4.25
2024-05-09T07:43:12.046Z,4.38
2024-05-09T07:44:14.544Z,3.60
2024-05-09T07:47:14.691Z,4.00
2024-05-09T07:49:13.465Z,7.43
2024-05-09T07:53:33.151Z,3.60
2024-05-09T07:53:59.895Z,3.35
2024-05-09T07:55:03.954Z,3.28
2024-05-09T07:56:07.492Z,3.25
2024-05-09T07:57:11.283Z,3.25
2024-05-09T07:58:13.625Z,3.30
2024-05-09T07:59:16.129Z,3.58
2024-05-09T08:00:26.752Z,3.15
2024-05-09T08:01:32.521Z,3.10
2024-05-09T08:02:35.282Z,3.60
2024-05-09T08:03:38.695Z,3.17
2024-05-09T08:04:41.513Z,6.93
2024-05-09T08:05:44.227Z,3.90
2024-05-09T08:06:47.408Z,3.20
2024-05-09T08:07:50.811Z,3.03
2024-05-09T08:08:56.850Z,3.50
2024-05-09T08:10:00.820Z,3.30
2024-05-09T08:11:03.510Z,3.20
2024-05-09T08:12:09.561Z,3.22
2024-05-09T08:13:13.158Z,3.50
2024-05-09T08:14:16.201Z,3.92
2024-05-09T08:15:18.532Z,3.58
2024-05-09T08:16:21.713Z,3.00
2024-05-09T08:17:26.759Z,2.83
2024-05-09T08:18:30.569Z,3.90
2024-05-09T08:19:35.021Z,3.05
2024-05-09T08:20:43.125Z,3.30
2024-05-09T08:21:46.148Z,3.42
2024-05-09T08:22:48.584Z,3.10
2024-05-09T08:23:52.643Z,3.63
2024-05-09T08:24:55.099Z,3.75
2024-05-09T08:25:59.893Z,3.40
2024-05-09T08:27:03.192Z,3.67
2024-05-09T08:28:06.605Z,3.05
2024-05-09T08:29:11.632Z,3.03
2024-05-09T08:30:21.782Z,3.25
2024-05-09T08:31:32.663Z,2.88
2024-05-09T08:32:35.934Z,2.90
2024-05-09T08:33:52.345Z,2.83
2024-05-09T08:34:54.958Z,2.70
2024-05-09T08:35:58.801Z,2.97
2024-05-09T08:37:10.042Z,3.28
2024-05-09T08:38:18.355Z,3.25
2024-05-09T08:39:21.990Z,3.35
2024-05-09T08:40:31.015Z,3.20
2024-05-09T08:41:42.528Z,3.28
2024-05-09T08:42:57.617Z,3.17
2024-05-09T08:44:00.163Z,2.90
2024-05-09T08:45:03.108Z,3.10
2024-05-09T08:46:09.236Z,3.10
2024-05-09T08:47:12.187Z,3.10
2024-05-09T08:48:18.612Z,3.28
2024-05-09T08:49:23.276Z,2.83
2024-05-09T08:50:32.362Z,3.42
2024-05-09T08:51:40.935Z,2.80
2024-05-09T08:52:45.881Z,2.90
2024-05-09T08:53:48.189Z,2.63
2024-05-09T08:54:52.092Z,2.95
2024-05-09T08:55:58.800Z,2.83
2024-05-09T08:57:02.210Z,3.13
2024-05-09T08:58:06.119Z,3.28
2024-05-09T08:59:13.584Z,2.75
2024-05-09T09:01:22.306Z,3.40
2024-05-09T09:02:26.084Z,3.30
2024-05-09T09:03:33.376Z,2.55
2024-05-09T09:04:39.700Z,3.00
2024-05-09T09:05:48.712Z,2.80
2024-05-09T09:06:57.271Z,2.50
2024-05-09T09:08:00.896Z,2.58
2024-05-09T09:09:04.619Z,3.10
2024-05-09T09:10:08.754Z,4.03
2024-05-09T09:11:12.328Z,2.63
2024-05-09T09:12:15.820Z,3.13
2024-05-09T09:13:18.597Z,2.42
2024-05-09T09:14:21.080Z,2.88
2024-05-09T09:15:24.857Z,2.90
2024-05-09T09:16:37.669Z,2.47
2024-05-09T09:17:41.304Z,2.53
2024-05-09T09:18:47.336Z,2.90
2024-05-09T09:19:50.033Z,3.38
2024-05-09T09:20:53.353Z,3.60
2024-05-09T09:21:58.266Z,3.40
2024-05-09T09:23:01.013Z,3.15
2024-05-09T09:24:03.437Z,13.90
2024-05-09T09:25:06.269Z,9.48
2024-05-09T09:26:10.009Z,4.10
2024-05-09T09:27:17.122Z,3.25
2024-05-09T09:28:23.700Z,3.30
2024-05-09T09:29:27.011Z,3.22
2024-05-09T09:30:36.468Z,3.83
2024-05-09T09:31:42.169Z,2.70
2024-05-09T09:32:44.668Z,3.33
2024-05-09T09:33:47.674Z,3.15
2024-05-09T09:34:50.239Z,3.55
2024-05-09T09:35:53.132Z,4.80
2024-05-09T09:36:59.201Z,3.13
2024-05-09T09:38:05.968Z,3.47
2024-05-09T09:39:10.174Z,3.80
2024-05-09T09:40:22.437Z,3.97
2024-05-09T09:41:30.835Z,3.47
2024-05-09T09:42:37.491Z,3.60
2024-05-09T09:43:40.993Z,4.00
2024-05-09T09:44:47.790Z,3.90
2024-05-09T09:46:00.215Z,3.20
2024-05-09T09:47:03.504Z,3.03
2024-05-09T09:48:12.237Z,3.30
2024-05-09T09:49:16.016Z,3.40
2024-05-09T09:50:27.327Z,3.00
2024-05-09T09:51:35.912Z,3.08
2024-05-09T09:52:39.514Z,2.97
2024-05-09T09:53:44.249Z,3.30
2024-05-09T09:54:49.153Z,3.42
2024-05-09T09:55:53.460Z,3.00
2024-05-09T09:56:57.367Z,3.20
2024-05-09T09:58:00.701Z,3.55
2024-05-09T09:59:04.881Z,3.60
2024-05-09T10:00:11.797Z,3.67
2024-05-09T10:01:17.225Z,3.40
2024-05-09T10:02:20.012Z,3.17
2024-05-09T10:03:23.248Z,3.38
2024-05-09T10:04:26.056Z,3.50
2024-05-09T10:05:29.552Z,3.95
2024-05-09T10:06:38.530Z,3.45
2024-05-09T10:08:48.409Z,3.85
2024-05-09T10:09:56.154Z,3.40
2024-05-09T10:10:59.891Z,3.30
2024-05-09T10:12:13.801Z,3.83
2024-05-09T10:13:20.181Z,2.90
2024-05-09T10:14:24.504Z,2.95
2024-05-09T10:15:28.026Z,2.95
2024-05-09T10:16:33.900Z,3.53
2024-05-09T10:17:37.647Z,3.33
2024-05-09T10:18:43.575Z,3.53
2024-05-09T10:19:47.521Z,4.00
2024-05-09T10:20:53.098Z,3.80
2024-05-09T10:22:03.458Z,3.70
2024-05-09T10:23:06.047Z,4.43
2024-05-09T10:24:11.292Z,3.25
2024-05-09T10:25:13.884Z,3.35
2024-05-09T10:26:18.940Z,3.97
2024-05-09T10:27:29.628Z,3.45
2024-05-09T10:28:37.267Z,3.67
2024-05-09T10:29:39.825Z,3.28
2024-05-09T10:30:43.384Z,4.85
2024-05-09T10:31:48.110Z,4.60
2024-05-09T10:32:56.265Z,4.35
2024-05-09T10:34:04.204Z,3.97
2024-05-09T10:35:12.749Z,4.32
2024-05-09T10:36:21.323Z,4.03
2024-05-09T10:37:27.406Z,3.95
2024-05-09T10:38:31.208Z,4.60
2024-05-09T10:39:41.668Z,4.40
2024-05-09T10:40:47.498Z,3.92
2024-05-09T10:41:50.608Z,4.18
2024-05-09T10:42:53.255Z,3.55
2024-05-09T10:43:56.164Z,3.65
2024-05-09T10:44:59.711Z,3.67
2024-05-09T10:46:02.905Z,3.67
2024-05-09T10:47:06.536Z,3.85
2024-05-09T10:48:13.102Z,3.80
2024-05-09T10:49:16.013Z,3.60
2024-05-09T10:50:28.102Z,3.50
2024-05-09T10:51:34.704Z,3.45
2024-05-09T10:52:38.266Z,3.85
2024-05-09T10:53:46.071Z,3.90
2024-05-09T10:54:54.555Z,3.50
2024-05-09T10:56:04.723Z,3.92
2024-05-09T10:57:07.994Z,3.63
2024-05-09T10:58:22.277Z,3.60
2024-05-09T10:59:24.859Z,4.10
2024-05-09T11:00:36.141Z,3.53
2024-05-09T11:01:41.790Z,3.80
2024-05-09T11:02:44.495Z,3.00
2024-05-09T11:03:51.345Z,3.03
2024-05-09T11:04:54.081Z,4.35
2024-05-09T11:05:58.120Z,3.88
2024-05-09T11:07:08.856Z,3.45
2024-05-09T11:08:12.894Z,3.30
2024-05-09T11:09:16.167Z,5.57
2024-05-09T11:10:27.202Z,4.85
2024-05-09T11:11:34.703Z,3.58
2024-05-09T11:12:37.718Z,3.53
2024-05-09T11:13:43.869Z,3.55
2024-05-09T11:14:57.144Z,3.20
2024-05-09T11:16:00.865Z,3.10
2024-05-09T11:17:07.751Z,3.47
2024-05-09T11:18:25.477Z,3.55
2024-05-09T11:19:33.461Z,3.22
2024-05-09T11:20:39.135Z,3.28
2024-05-09T11:21:44.797Z,3.30
2024-05-09T11:22:47.649Z,2.97
2024-05-09T11:23:51.163Z,3.75
2024-05-09T11:24:54.984Z,3.55
2024-05-09T11:25:59.645Z,3.50
2024-05-09T11:27:06.005Z,3.38
2024-05-09T11:28:08.715Z,3.13
2024-05-09T11:29:15.743Z,4.00
2024-05-09T11:30:26.974Z,3.38
2024-05-09T11:31:37.220Z,2.42
2024-05-09T11:32:39.705Z,2.97
2024-05-09T11:33:47.162Z,3.17
2024-05-09T11:34:50.171Z,3.10
2024-05-09T11:35:54.084Z,2.95
2024-05-09T11:36:57.404Z,2.40
2024-05-09T11:38:00.047Z,2.70
2024-05-09T11:39:07.928Z,2.75
2024-05-09T11:40:16.846Z,2.75
2024-05-09T11:41:23.942Z,3.33
2024-05-09T11:42:26.908Z,3.80
2024-05-09T11:43:29.555Z,3.42
2024-05-09T11:44:32.517Z,4.00
2024-05-09T11:45:35.058Z,3.38
2024-05-09T11:46:38.167Z,3.55
2024-05-09T11:47:40.981Z,3.30
2024-05-09T11:48:44.426Z,3.03
2024-05-09T11:49:47.544Z,3.03
2024-05-09T11:50:55.872Z,3.08
2024-05-09T11:51:58.441Z,3.25
2024-05-09T11:53:01.158Z,3.75
2024-05-09T11:54:06.937Z,3.45
2024-05-09T11:55:12.954Z,3.70
2024-05-09T11:56:17.518Z,3.00
2024-05-09T11:57:19.932Z,3.63
2024-05-09T11:58:23.660Z,3.22
2024-05-09T11:59:26.391Z,3.08
2024-05-09T12:00:34.532Z,3.10
2024-05-09T12:01:39.788Z,3.40
2024-05-09T12:02:43.499Z,3.45
2024-05-09T12:03:51.886Z,3.88
2024-05-09T12:04:54.633Z,3.28
2024-05-09T12:05:59.412Z,3.40
2024-05-09T12:07:03.518Z,3.25
2024-05-09T12:08:07.324Z,3.35
2024-05-09T12:09:09.809Z,3.63
2024-05-09T12:10:16.946Z,3.28
2024-05-09T12:11:22.953Z,3.15
2024-05-09T12:12:26.149Z,3.10
2024-05-09T12:13:29.823Z,3.20
2024-05-09T12:14:34.391Z,3.42
2024-05-09T12:15:38.762Z,3.60
2024-05-09T12:16:42.366Z,3.50
2024-05-09T12:17:46.201Z,3.75
2024-05-09T12:18:52.022Z,3.67
2024-05-09T12:19:54.432Z,3.10
2024-05-09T12:20:57.168Z,3.35
2024-05-09T12:21:59.676Z,2.97
2024-05-09T12:23:02.791Z,3.58
2024-05-09T12:24:06.199Z,4.32
2024-05-09T12:25:08.572Z,3.00
2024-05-09T12:26:11.493Z,2.83
2024-05-09T12:27:13.819Z,2.80
2024-05-09T12:28:17.051Z,3.00
2024-05-09T12:29:19.549Z,2.90
2024-05-09T12:30:33.124Z,2.75
2024-05-09T12:31:43.379Z,3.30
2024-05-09T12:32:46.360Z,3.67
2024-05-09T12:33:49.134Z,5.60
2024-05-09T12:34:54.427Z,3.67
2024-05-09T12:36:00.893Z,3.20
2024-05-09T12:37:04.157Z,3.60
2024-05-09T12:38:07.252Z,3.45
2024-05-09T12:39:10.609Z,4.55
2024-05-09T12:40:22.463Z,3.95
2024-05-09T12:41:29.101Z,3.20
2024-05-09T12:42:33.746Z,3.80
2024-05-09T12:43:39.391Z,6.45
2024-05-09T12:44:42.142Z,4.75
2024-05-09T12:45:45.019Z,3.50
2024-05-09T12:46:47.852Z,3.00
2024-05-09T12:47:50.903Z,3.05
2024-05-09T12:48:53.612Z,2.70
2024-05-09T12:49:56.939Z,3.05
2024-05-09T12:50:59.432Z,2.50
2024-05-09T12:52:02.351Z,3.20
2024-05-09T12:53:05.825Z,2.85
2024-05-09T12:54:08.215Z,3.15
2024-05-09T12:55:11.455Z,3.03
2024-05-09T12:56:14.231Z,2.80
2024-05-09T12:57:17.101Z,2.25
2024-05-09T12:58:22.738Z,2.80
2024-05-09T12:59:25.935Z,2.60
2024-05-09T13:00:33.640Z,2.30
2024-05-09T13:01:37.745Z,2.60
2024-05-09T13:02:41.044Z,2.38
2024-05-09T13:03:43.737Z,2.20
2024-05-09T13:04:47.389Z,2.33
2024-05-09T13:05:51.648Z,1.80
2024-05-09T13:06:54.522Z,2.40
2024-05-09T13:07:57.472Z,2.92
2024-05-09T13:09:03.056Z,2.38
2024-05-09T13:10:13.820Z,2.38
2024-05-09T13:11:22.230Z,2.45
2024-05-09T13:12:27.678Z,2.45
2024-05-09T13:13:30.249Z,2.40
2024-05-09T13:14:33.299Z,2.50
2024-05-09T13:15:37.147Z,2.58
2024-05-09T13:16:39.733Z,2.30
2024-05-09T13:17:43.067Z,2.47
2024-05-09T13:18:46.124Z,2.40
2024-05-09T13:19:48.618Z,2.17
2024-05-09T13:20:51.308Z,2.60
2024-05-09T13:21:53.776Z,2.33
2024-05-09T13:22:58.367Z,2.40
2024-05-09T13:24:00.935Z,3.15
2024-05-09T13:25:03.328Z,2.97
2024-05-09T13:26:06.087Z,2.92
2024-05-09T13:27:09.952Z,2.47
2024-05-09T13:28:12.846Z,2.80
2024-05-09T13:29:15.871Z,2.45
2024-05-09T13:30:29.626Z,3.08
2024-05-09T13:31:40.932Z,2.40
2024-05-09T13:32:43.459Z,2.70
2024-05-09T13:33:46.500Z,3.05
2024-05-09T13:34:49.143Z,2.80
2024-05-09T13:35:52.840Z,2.60
2024-05-09T13:36:55.857Z,2.90
2024-05-09T13:37:58.476Z,3.00
2024-05-09T13:39:00.973Z,3.67
2024-05-09T13:40:05.395Z,3.85
2024-05-09T13:41:09.633Z,3.10
2024-05-09T13:42:12.574Z,3.40
2024-05-09T13:43:15.228Z,3.53
2024-05-09T13:44:18.495Z,3.28
2024-05-09T13:45:21.072Z,3.00
2024-05-09T13:46:23.718Z,3.42
2024-05-09T13:47:27.969Z,3.80
2024-05-09T13:48:31.107Z,2.70
2024-05-09T13:49:33.541Z,2.92
2024-05-09T13:50:37.358Z,3.13
2024-05-09T13:51:40.154Z,3.05
2024-05-09T13:52:43.211Z,3.15
2024-05-09T13:53:45.989Z,3.60
2024-05-09T13:54:48.633Z,3.38
2024-05-09T13:55:51.359Z,2.85
2024-05-09T13:56:53.802Z,2.95
2024-05-09T13:57:57.111Z,3.70
2024-05-09T13:58:59.469Z,3.40
2024-05-09T14:00:01.962Z,3.10
2024-05-09T14:01:13.918Z,3.05
2024-05-09T14:02:17.041Z,3.03
2024-05-09T14:03:20.838Z,2.83
2024-05-09T14:04:23.838Z,2.88
2024-05-09T14:05:27.262Z,2.90
2024-05-09T14:06:29.767Z,2.75
2024-05-09T14:07:35.711Z,3.33
2024-05-09T14:08:38.001Z,4.15
2024-05-09T14:09:41.085Z,3.60
2024-05-09T14:10:47.226Z,3.60
2024-05-09T14:11:49.928Z,3.80
2024-05-09T14:12:53.217Z,3.70
2024-05-09T14:13:55.790Z,4.03
2024-05-09T14:14:58.081Z,3.47
2024-05-09T14:16:00.916Z,3.90
2024-05-09T14:17:06.770Z,4.10
2024-05-09T14:18:12.508Z,3.50
2024-05-09T14:19:17.045Z,3.78
2024-05-09T14:20:29.899Z,4.30
2024-05-09T14:21:34.530Z,3.38
2024-05-09T14:22:37.005Z,3.50
2024-05-09T14:23:39.598Z,3.55
2024-05-09T14:24:43.029Z,3.65
2024-05-09T14:25:49.052Z,3.30
2024-05-09T14:26:53.579Z,3.15